createdAt,value
2019-05-07T00:00:38.020Z,0.00
2019-05-07T00:02:32.132Z,0.00
2019-05-07T00:03:32.859Z,0.00
2019-05-07T00:05:23.839Z,0.00
2019-05-07T00:06:23.842Z,0.00
2019-05-07T00:08:16.743Z,0.00
2019-05-07T00:09:16.752Z,0.00
2019-05-07T00:11:09.659Z,0.00
2019-05-07T00:12:09.663Z,0.00
2019-05-07T00:14:03.127Z,0.00
2019-05-07T00:15:04.610Z,0.00
2019-05-07T00:16:55.478Z,0.00
2019-05-07T00:17:55.483Z,0.00
2019-05-07T00:19:48.384Z,0.00
2019-05-07T00:20:48.394Z,0.00
2019-05-07T00:22:42.020Z,0.00
2019-05-07T00:23:43.297Z,0.00
2019-05-07T00:25:34.210Z,0.00
2019-05-07T00:26:34.213Z,0.00
2019-05-07T00:28:27.117Z,0.00
2019-05-07T00:29:27.126Z,0.00
2019-05-07T00:31:20.039Z,0.00
2019-05-07T00:32:22.080Z,0.00
2019-05-07T00:34:12.942Z,0.00
2019-05-07T00:35:13.142Z,0.00
2019-05-07T00:37:07.074Z,0.00
2019-05-07T00:38:05.861Z,0.00
2019-05-07T00:39:58.766Z,0.00
2019-05-07T00:40:58.771Z,0.00
2019-05-07T00:42:53.012Z,0.00
2019-05-07T00:43:52.488Z,0.00
2019-05-07T00:45:44.590Z,0.00
2019-05-07T00:46:44.591Z,0.00
2019-05-07T00:48:37.494Z,0.00
2019-05-07T00:49:37.501Z,0.00
2019-05-07T00:51:30.412Z,0.00
2019-05-07T00:52:30.410Z,0.00
2019-05-07T00:54:23.313Z,0.00
2019-05-07T00:55:23.320Z,0.00
2019-05-07T00:57:16.228Z,0.00
2019-05-07T00:58:16.231Z,0.00
2019-05-07T01:00:09.134Z,0.00
2019-05-07T01:01:09.145Z,0.00
2019-05-07T01:03:03.067Z,0.00
2019-05-07T01:04:02.631Z,0.00
2019-05-07T01:05:54.958Z,0.00
2019-05-07T01:06:54.966Z,0.00
2019-05-07T01:08:47.861Z,0.00
2019-05-07T01:09:47.876Z,0.00
2019-05-07T01:11:42.907Z,0.00
2019-05-07T01:12:42.299Z,0.00
2019-05-07T01:14:33.688Z,0.00
2019-05-07T01:15:34.737Z,0.00
2019-05-07T01:17:26.601Z,0.00
2019-05-07T01:18:26.598Z,0.00
2019-05-07T01:20:19.494Z,0.00
2019-05-07T01:21:19.512Z,0.00
2019-05-07T01:23:13.389Z,0.00
2019-05-07T01:24:12.450Z,0.00
2019-05-07T01:26:05.321Z,0.00
2019-05-07T01:27:05.324Z,0.00
2019-05-07T01:28:58.225Z,0.00
2019-05-07T01:29:58.234Z,0.00
2019-05-07T01:31:52.532Z,0.00
2019-05-07T01:32:53.168Z,0.00
2019-05-07T01:34:44.045Z,0.00
2019-05-07T01:35:44.051Z,0.00
2019-05-07T01:37:36.967Z,0.00
2019-05-07T01:38:36.961Z,0.00
2019-05-07T01:40:29.860Z,0.00
2019-05-07T01:41:29.868Z,0.00
2019-05-07T01:43:22.946Z,0.00
2019-05-07T01:44:22.778Z,0.00
2019-05-07T01:46:15.684Z,0.00
2019-05-07T01:47:15.691Z,0.00
2019-05-07T01:49:08.588Z,0.00
2019-05-07T01:50:08.594Z,0.00
2019-05-07T01:52:02.510Z,0.00
2019-05-07T01:53:03.758Z,0.00
2019-05-07T01:54:54.406Z,0.00
2019-05-07T01:55:54.413Z,0.00
2019-05-07T01:57:47.323Z,0.00
2019-05-07T01:58:47.333Z,0.00
2019-05-07T02:00:42.223Z,0.00
2019-05-07T02:01:42.729Z,0.00
2019-05-07T02:03:33.140Z,0.00
2019-05-07T02:04:33.143Z,0.00
2019-05-07T02:06:26.049Z,0.00
2019-05-07T02:07:26.054Z,0.00
2019-05-07T02:09:18.956Z,0.00
2019-05-07T02:10:18.963Z,0.00
2019-05-07T02:12:13.200Z,0.00
2019-05-07T02:13:12.615Z,0.00
2019-05-07T02:15:04.774Z,0.00
2019-05-07T02:16:04.787Z,0.00
2019-05-07T02:17:57.696Z,0.00
2019-05-07T02:18:57.699Z,0.00
2019-05-07T02:20:52.106Z,0.00
2019-05-07T02:21:52.740Z,0.00
2019-05-07T02:23:43.515Z,0.00
2019-05-07T02:24:43.570Z,0.00
2019-05-07T02:26:36.422Z,0.00
2019-05-07T02:27:36.424Z,0.00
2019-05-07T02:29:29.325Z,0.00
2019-05-07T02:30:29.334Z,0.00
2019-05-07T02:32:24.092Z,0.00
2019-05-07T02:33:22.964Z,0.00
2019-05-07T02:35:15.142Z,0.00
2019-05-07T02:36:15.149Z,0.00
2019-05-07T02:38:08.057Z,0.00
2019-05-07T02:39:08.059Z,0.00
2019-05-07T02:41:02.883Z,0.00
2019-05-07T02:42:03.496Z,0.00
2019-05-07T02:43:54.008Z,0.00
2019-05-07T02:44:53.879Z,0.00
2019-05-07T02:46:46.783Z,0.00
2019-05-07T02:47:46.797Z,0.00
2019-05-07T02:49:39.685Z,0.00
2019-05-07T02:50:39.693Z,0.00
2019-05-07T02:52:32.601Z,0.00
2019-05-07T02:53:33.679Z,0.00
2019-05-07T02:55:25.503Z,0.00
2019-05-07T02:56:25.510Z,0.00
2019-05-07T02:58:18.414Z,0.00
2019-05-07T02:59:18.419Z,0.00
2019-05-07T03:01:13.830Z,0.00
2019-05-07T03:02:13.706Z,0.00
2019-05-07T03:04:04.233Z,0.00
2019-05-07T03:05:05.157Z,0.00
2019-05-07T03:06:57.142Z,0.00
2019-05-07T03:07:57.145Z,0.00
2019-05-07T03:09:50.044Z,0.00
2019-05-07T03:10:52.484Z,0.00
2019-05-07T03:12:43.250Z,0.00
2019-05-07T03:13:43.333Z,0.00
2019-05-07T03:15:35.863Z,0.00
2019-05-07T03:16:43.706Z,0.00
2019-05-07T03:18:28.789Z,4.00
2019-05-07T03:19:28.783Z,0.00
2019-05-07T03:21:23.501Z,4.00
2019-05-07T03:22:23.159Z,4.00
2019-05-07T03:24:14.594Z,4.00
2019-05-07T03:25:14.604Z,4.00
2019-05-07T03:27:07.542Z,4.00
2019-05-07T03:28:07.505Z,8.00
2019-05-07T03:30:04.256Z,8.00
2019-05-07T03:31:05.247Z,12.00
2019-05-07T03:32:56.067Z,12.00
2019-05-07T03:33:55.853Z,16.00
2019-05-07T03:35:47.351Z,24.00
2019-05-07T03:36:48.219Z,28.00
2019-05-07T03:38:39.151Z,44.00
2019-05-07T03:39:39.141Z,52.00
2019-05-07T03:41:33.316Z,72.00
2019-05-07T03:42:33.528Z,84.00
2019-05-07T03:44:24.967Z,100.00
2019-05-07T03:45:24.957Z,116.00
2019-05-07T03:47:17.878Z,152.00
2019-05-07T03:48:17.866Z,176.00
2019-05-07T03:50:14.267Z,224.00
2019-05-07T03:51:13.206Z,252.00
2019-05-07T03:53:03.687Z,296.00
2019-05-07T03:54:03.688Z,320.00
2019-05-07T03:55:56.585Z,372.00
2019-05-07T03:56:56.604Z,400.00
2019-05-07T03:58:52.668Z,448.00
2019-05-07T03:59:53.012Z,480.00
2019-05-07T04:01:43.057Z,544.00
2019-05-07T04:02:43.837Z,576.00
2019-05-07T04:04:35.322Z,632.00
2019-05-07T04:05:35.325Z,668.00
2019-05-07T04:07:28.253Z,760.00
2019-05-07T04:08:28.237Z,808.00
2019-05-07T04:10:23.175Z,944.00
2019-05-07T04:11:23.055Z,1060.00
2019-05-07T04:13:14.063Z,1232.00
2019-05-07T04:14:14.063Z,1308.00
2019-05-07T04:16:06.961Z,1412.00
2019-05-07T04:17:21.858Z,1468.00
2019-05-07T04:18:59.871Z,1628.00
2019-05-07T04:19:59.873Z,1732.00
2019-05-07T04:21:53.543Z,1964.00
2019-05-07T04:22:53.547Z,2108.00
2019-05-07T04:24:45.712Z,2356.00
2019-05-07T04:25:45.694Z,2464.00
2019-05-07T04:27:38.597Z,2568.00
2019-05-07T04:28:38.606Z,2548.00
2019-05-07T04:30:33.098Z,2488.00
2019-05-07T04:31:34.295Z,2552.00
2019-05-07T04:33:24.427Z,2684.00
2019-05-07T04:34:24.437Z,2640.00
2019-05-07T04:36:17.331Z,2740.00
2019-05-07T04:37:17.350Z,2760.00
2019-05-07T04:39:12.958Z,2636.00
2019-05-07T04:40:10.254Z,2572.00
2019-05-07T04:42:03.606Z,2548.00
2019-05-07T04:43:03.190Z,2512.00
2019-05-07T04:44:56.096Z,2456.00
2019-05-07T04:45:56.085Z,2424.00
2019-05-07T04:47:48.985Z,2308.00
2019-05-07T04:48:48.989Z,2168.00
2019-05-07T04:50:44.416Z,1960.00
2019-05-07T04:51:43.437Z,1908.00
2019-05-07T04:53:34.811Z,1904.00
2019-05-07T04:54:34.816Z,1892.00
2019-05-07T04:56:27.716Z,1708.00
2019-05-07T04:57:27.726Z,1740.00
2019-05-07T04:59:23.492Z,1716.00
2019-05-07T05:00:22.966Z,1716.00
2019-05-07T05:02:13.745Z,1976.00
2019-05-07T05:03:13.550Z,2100.00
2019-05-07T05:05:06.459Z,2592.00
2019-05-07T05:06:06.462Z,2984.00
2019-05-07T05:07:59.366Z,3264.00
2019-05-07T05:08:59.426Z,3564.00
2019-05-07T05:10:53.838Z,3964.00
2019-05-07T05:11:53.078Z,4032.00
2019-05-07T05:13:45.219Z,3480.00
2019-05-07T05:14:45.219Z,3192.00
2019-05-07T05:16:38.119Z,2804.00
2019-05-07T05:17:48.080Z,2708.00
2019-05-07T05:19:32.309Z,2564.00
2019-05-07T05:20:31.043Z,2480.00
2019-05-07T05:22:23.949Z,2328.00
2019-05-07T05:23:23.958Z,2368.00
2019-05-07T05:25:16.864Z,2656.00
2019-05-07T05:26:16.871Z,2712.00
2019-05-07T05:28:09.774Z,3004.00
2019-05-07T05:29:11.982Z,3416.00
2019-05-07T05:31:03.421Z,4008.00
2019-05-07T05:32:02.701Z,4260.00
2019-05-07T05:33:55.610Z,4620.00
2019-05-07T05:34:55.614Z,4924.00
2019-05-07T05:36:48.519Z,5596.00
2019-05-07T05:37:48.529Z,6232.00
2019-05-07T05:39:42.668Z,6284.00
2019-05-07T05:40:42.697Z,5516.00
2019-05-07T05:42:34.352Z,6388.00
2019-05-07T05:43:34.357Z,7664.00
2019-05-07T05:45:27.284Z,8792.00
2019-05-07T05:46:27.275Z,6412.00
2019-05-07T05:48:22.225Z,8816.00
2019-05-07T05:49:20.191Z,9148.00
2019-05-07T05:51:13.596Z,8688.00
2019-05-07T05:52:13.602Z,8632.00
2019-05-07T05:54:06.539Z,8640.00
2019-05-07T05:55:06.520Z,8724.00
2019-05-07T05:56:59.426Z,11272.00
2019-05-07T05:57:59.436Z,15552.00
2019-05-07T05:59:55.216Z,12048.00
2019-05-07T06:00:53.006Z,14052.00
2019-05-07T06:02:45.262Z,8984.00
2019-05-07T06:03:45.275Z,9484.00
2019-05-07T06:05:38.188Z,8120.00
2019-05-07T06:06:38.194Z,7856.00
2019-05-07T06:08:32.469Z,9236.00
2019-05-07T06:09:32.782Z,9580.00
2019-05-07T06:11:24.026Z,13576.00
2019-05-07T06:12:24.035Z,21056.00
2019-05-07T06:14:16.945Z,24224.00
2019-05-07T06:15:16.951Z,13032.00
2019-05-07T06:17:09.865Z,8308.00
2019-05-07T06:18:20.485Z,7344.00
2019-05-07T06:20:03.099Z,8400.00
2019-05-07T06:21:03.036Z,9856.00
2019-05-07T06:22:55.707Z,7816.00
2019-05-07T06:23:55.722Z,8584.00
2019-05-07T06:25:48.661Z,8048.00
2019-05-07T06:26:48.642Z,7452.00
2019-05-07T06:28:42.552Z,7016.00
2019-05-07T06:29:42.592Z,6956.00
2019-05-07T06:31:34.483Z,9772.00
2019-05-07T06:32:34.490Z,9724.00
2019-05-07T06:34:27.404Z,7144.00
2019-05-07T06:35:27.410Z,6112.00
2019-05-07T06:37:22.655Z,6824.00
2019-05-07T06:38:22.005Z,6668.00
2019-05-07T06:40:13.251Z,7168.00
2019-05-07T06:41:13.254Z,7548.00
2019-05-07T06:43:06.164Z,7024.00
2019-05-07T06:44:06.175Z,6992.00
2019-05-07T06:45:59.098Z,9152.00
2019-05-07T06:46:59.106Z,10256.00
2019-05-07T06:48:52.701Z,12768.00
2019-05-07T06:49:52.378Z,44160.00
2019-05-07T06:51:47.699Z,44352.00
2019-05-07T06:52:44.945Z,46304.00
2019-05-07T06:54:38.035Z,44512.00
2019-05-07T06:55:37.872Z,42848.00
2019-05-07T06:57:32.843Z,26112.00
2019-05-07T06:58:32.667Z,25632.00
2019-05-07T07:00:23.722Z,30976.00
2019-05-07T07:01:23.729Z,32448.00
2019-05-07T07:03:16.651Z,40896.00
2019-05-07T07:04:16.670Z,11012.00
2019-05-07T07:06:09.585Z,11040.00
2019-05-07T07:07:24.015Z,10052.00
2019-05-07T07:09:02.511Z,10140.00
2019-05-07T07:10:02.809Z,9752.00
2019-05-07T07:11:55.445Z,10104.00
2019-05-07T07:12:55.452Z,10356.00
2019-05-07T07:14:48.374Z,8084.00
2019-05-07T07:15:48.383Z,7224.00
2019-05-07T07:17:41.903Z,7300.00
2019-05-07T07:18:49.530Z,8116.00
2019-05-07T07:20:34.226Z,9124.00
2019-05-07T07:21:34.234Z,9128.00
2019-05-07T07:23:27.153Z,9308.00
2019-05-07T07:24:27.159Z,9272.00
2019-05-07T07:26:22.132Z,9740.00
2019-05-07T07:27:22.555Z,10828.00
2019-05-07T07:29:13.019Z,11588.00
2019-05-07T07:30:13.034Z,11500.00
2019-05-07T07:32:05.960Z,11796.00
2019-05-07T07:33:05.960Z,11892.00
2019-05-07T07:34:58.876Z,11728.00
2019-05-07T07:35:58.886Z,11784.00
2019-05-07T07:37:53.081Z,11132.00
2019-05-07T07:38:52.725Z,11524.00
2019-05-07T07:40:44.730Z,11880.00
2019-05-07T07:41:44.737Z,12052.00
2019-05-07T07:43:37.650Z,11632.00
2019-05-07T07:44:37.661Z,11180.00
2019-05-07T07:46:32.821Z,10604.00
2019-05-07T07:47:32.749Z,10432.00
2019-05-07T07:49:23.502Z,10296.00
2019-05-07T07:50:23.520Z,10400.00
2019-05-07T07:52:16.433Z,11008.00
2019-05-07T07:53:16.441Z,11332.00
2019-05-07T07:55:09.352Z,12172.00
2019-05-07T07:56:09.366Z,12380.00
2019-05-07T07:58:02.720Z,12036.00
2019-05-07T07:59:02.293Z,11748.00
2019-05-07T08:00:55.707Z,12424.00
2019-05-07T08:01:55.719Z,12272.00
2019-05-07T08:03:48.630Z,12588.00
2019-05-07T08:04:48.648Z,12580.00
2019-05-07T08:06:42.157Z,11236.00
2019-05-07T08:07:42.591Z,10956.00
2019-05-07T08:09:34.503Z,10972.00
2019-05-07T08:10:34.506Z,11080.00
2019-05-07T08:12:27.424Z,10196.00
2019-05-07T08:13:27.433Z,9196.00
2019-05-07T08:15:23.671Z,8436.00
2019-05-07T08:16:22.267Z,8612.00
2019-05-07T08:18:13.308Z,9432.00
2019-05-07T08:19:21.582Z,9000.00
2019-05-07T08:21:07.963Z,8608.00
2019-05-07T08:22:06.216Z,8496.00
2019-05-07T08:23:59.130Z,8548.00
2019-05-07T08:24:59.143Z,8236.00
2019-05-07T08:26:52.064Z,8692.00
2019-05-07T08:27:52.474Z,8844.00
2019-05-07T08:29:44.984Z,8624.00
2019-05-07T08:30:44.998Z,8436.00
2019-05-07T08:32:37.917Z,8640.00
2019-05-07T08:33:37.924Z,8900.00
2019-05-07T08:35:32.691Z,9136.00
2019-05-07T08:36:33.016Z,8976.00
2019-05-07T08:38:23.773Z,9080.00
2019-05-07T08:39:25.196Z,9140.00
2019-05-07T08:41:16.703Z,9112.00
2019-05-07T08:42:16.703Z,9208.00
2019-05-07T08:44:14.626Z,9448.00
2019-05-07T08:45:11.856Z,9608.00
2019-05-07T08:47:02.784Z,10520.00
2019-05-07T08:48:02.552Z,11352.00
2019-05-07T08:49:55.467Z,12332.00
2019-05-07T08:50:55.481Z,12012.00
2019-05-07T08:52:48.400Z,12816.00
2019-05-07T08:53:48.407Z,13500.00
2019-05-07T08:55:42.462Z,13284.00
2019-05-07T08:56:42.495Z,13032.00
2019-05-07T08:58:34.254Z,12836.00
2019-05-07T08:59:34.280Z,13684.00
2019-05-07T09:01:27.186Z,14648.00
2019-05-07T09:02:27.196Z,14420.00
2019-05-07T09:04:21.981Z,13012.00
2019-05-07T09:05:21.970Z,12872.00
2019-05-07T09:07:13.266Z,13160.00
2019-05-07T09:08:13.051Z,12940.00
2019-05-07T09:10:05.975Z,13296.00
2019-05-07T09:11:05.985Z,13232.00
2019-05-07T09:12:58.904Z,13288.00
2019-05-07T09:13:58.911Z,12952.00
2019-05-07T09:15:52.844Z,11604.00
2019-05-07T09:16:52.741Z,11292.00
2019-05-07T09:18:44.762Z,11440.00
2019-05-07T09:19:51.567Z,11312.00
2019-05-07T09:21:37.697Z,11068.00
2019-05-07T09:22:37.703Z,11612.00
2019-05-07T09:24:32.941Z,12824.00
2019-05-07T09:25:32.474Z,13332.00
2019-05-07T09:27:23.556Z,13764.00
2019-05-07T09:28:23.565Z,14124.00
2019-05-07T09:30:16.481Z,14316.00
2019-05-07T09:31:16.495Z,13940.00
2019-05-07T09:33:09.416Z,13308.00
2019-05-07T09:34:09.426Z,13020.00
2019-05-07T09:36:02.418Z,12168.00
2019-05-07T09:37:02.486Z,11876.00
2019-05-07T09:38:58.876Z,11132.00
2019-05-07T09:39:55.288Z,10680.00
2019-05-07T09:41:48.215Z,9864.00
2019-05-07T09:42:48.217Z,9268.00
2019-05-07T09:44:42.462Z,8088.00
2019-05-07T09:45:42.101Z,7484.00
2019-05-07T09:47:34.069Z,6684.00
2019-05-07T09:48:34.077Z,6496.00
2019-05-07T09:50:26.993Z,6884.00
2019-05-07T09:51:27.009Z,7364.00
2019-05-07T09:53:19.930Z,8696.00
2019-05-07T09:54:19.940Z,9452.00
2019-05-07T09:56:12.859Z,10968.00
2019-05-07T09:57:27.347Z,11672.00
2019-05-07T09:59:05.798Z,12696.00
2019-05-07T10:00:05.798Z,13192.00
2019-05-07T10:01:58.727Z,13672.00
2019-05-07T10:02:58.730Z,13768.00
2019-05-07T10:04:52.698Z,13480.00
2019-05-07T10:05:51.901Z,13036.00
2019-05-07T10:07:44.586Z,13564.00
2019-05-07T10:08:44.595Z,13264.00
2019-05-07T10:10:37.510Z,11988.00
2019-05-07T10:11:37.525Z,11508.00
2019-05-07T10:13:30.447Z,11716.00
2019-05-07T10:14:30.457Z,12180.00
2019-05-07T10:16:23.374Z,12404.00
2019-05-07T10:17:23.392Z,12224.00
2019-05-07T10:19:16.312Z,11936.00
2019-05-07T10:20:22.511Z,11620.00
2019-05-07T10:22:09.261Z,11184.00
2019-05-07T10:23:09.251Z,11400.00
2019-05-07T10:25:02.818Z,11172.00
2019-05-07T10:26:02.180Z,10892.00
2019-05-07T10:27:55.103Z,10672.00
2019-05-07T10:28:55.117Z,10508.00
2019-05-07T10:30:48.030Z,10832.00
2019-05-07T10:31:48.043Z,11276.00
2019-05-07T10:33:42.223Z,11912.00
2019-05-07T10:34:42.214Z,12068.00
2019-05-07T10:36:33.897Z,11608.00
2019-05-07T10:37:33.901Z,11444.00
2019-05-07T10:39:26.822Z,11124.00
2019-05-07T10:40:26.829Z,10684.00
2019-05-07T10:42:19.781Z,9896.00
2019-05-07T10:43:22.045Z,9676.00
2019-05-07T10:45:13.085Z,10200.00
2019-05-07T10:46:12.922Z,10768.00
2019-05-07T10:48:05.614Z,10924.00
2019-05-07T10:49:05.621Z,10484.00
2019-05-07T10:50:58.542Z,10228.00
2019-05-07T10:51:58.556Z,10288.00
2019-05-07T10:53:51.863Z,10648.00
2019-05-07T10:54:59.722Z,11036.00
2019-05-07T10:56:44.403Z,11996.00
2019-05-07T10:57:44.418Z,12456.00
2019-05-07T10:59:37.340Z,13848.00
2019-05-07T11:00:37.350Z,14524.00
2019-05-07T11:02:32.323Z,15592.00
2019-05-07T11:03:32.184Z,16012.00
2019-05-07T11:05:23.201Z,16268.00
2019-05-07T11:06:23.214Z,15816.00
2019-05-07T11:08:16.137Z,13840.00
2019-05-07T11:09:16.146Z,13192.00
2019-05-07T11:11:09.070Z,13584.00
2019-05-07T11:12:09.079Z,14080.00
2019-05-07T11:14:02.047Z,14736.00
2019-05-07T11:15:02.265Z,14932.00
2019-05-07T11:16:54.952Z,14848.00
2019-05-07T11:17:54.945Z,15164.00
2019-05-07T11:19:47.867Z,15540.00
2019-05-07T11:20:50.435Z,15232.00
2019-05-07T11:22:42.756Z,13084.00
2019-05-07T11:23:41.893Z,12912.00
2019-05-07T11:25:33.732Z,13508.00
2019-05-07T11:26:33.741Z,13940.00
2019-05-07T11:28:26.667Z,14480.00
2019-05-07T11:29:26.676Z,13696.00
2019-05-07T11:31:19.593Z,12168.00
2019-05-07T11:32:21.544Z,11620.00
2019-05-07T11:34:13.851Z,10956.00
2019-05-07T11:35:14.694Z,10636.00
2019-05-07T11:37:05.465Z,10756.00
2019-05-07T11:38:17.818Z,11180.00
2019-05-07T11:39:58.402Z,10900.00
2019-05-07T11:40:58.412Z,10936.00
2019-05-07T11:42:51.965Z,10712.00
2019-05-07T11:43:53.867Z,10712.00
2019-05-07T11:45:44.271Z,11100.00
2019-05-07T11:46:44.459Z,10836.00
2019-05-07T11:48:37.204Z,12120.00
2019-05-07T11:49:37.216Z,13244.00
2019-05-07T11:51:30.132Z,13176.00
2019-05-07T11:52:32.902Z,12976.00
2019-05-07T11:54:23.077Z,12416.00
2019-05-07T11:55:23.092Z,11920.00
2019-05-07T11:57:16.013Z,10732.00
2019-05-07T11:58:16.022Z,10404.00
2019-05-07T12:00:08.948Z,9684.00
2019-05-07T12:01:08.958Z,9900.00
2019-05-07T12:03:02.258Z,10204.00
2019-05-07T12:04:02.111Z,10864.00
2019-05-07T12:05:54.823Z,11248.00
2019-05-07T12:06:54.832Z,11800.00
2019-05-07T12:08:51.830Z,13440.00
2019-05-07T12:09:47.769Z,12836.00
2019-05-07T12:11:42.600Z,10620.00
2019-05-07T12:12:40.701Z,10108.00
2019-05-07T12:14:35.010Z,10356.00
2019-05-07T12:15:33.637Z,10476.00
2019-05-07T12:17:26.553Z,10424.00
2019-05-07T12:18:26.582Z,9380.00
2019-05-07T12:20:21.715Z,9060.00
2019-05-07T12:21:23.539Z,9648.00
2019-05-07T12:23:12.417Z,10096.00
2019-05-07T12:24:14.579Z,9932.00
2019-05-07T12:26:05.352Z,9228.00
2019-05-07T12:27:05.360Z,8744.00
2019-05-07T12:28:58.280Z,9280.00
2019-05-07T12:29:58.289Z,9312.00
2019-05-07T12:31:52.358Z,9688.00
2019-05-07T12:32:52.015Z,8940.00
2019-05-07T12:34:44.135Z,8920.00
2019-05-07T12:35:44.151Z,9616.00
2019-05-07T12:37:37.059Z,8932.00
2019-05-07T12:38:37.074Z,8736.00
2019-05-07T12:40:30.019Z,8568.00
2019-05-07T12:41:30.039Z,8708.00
2019-05-07T12:43:22.996Z,8048.00
2019-05-07T12:44:22.958Z,7336.00
2019-05-07T12:46:16.553Z,6336.00
2019-05-07T12:47:16.078Z,6072.00
2019-05-07T12:49:08.809Z,5680.00
2019-05-07T12:50:08.818Z,6136.00
2019-05-07T12:52:02.271Z,7360.00
2019-05-07T12:53:02.211Z,7404.00
2019-05-07T12:54:54.672Z,6636.00
2019-05-07T12:55:54.676Z,6572.00
2019-05-07T12:57:47.666Z,8560.00
2019-05-07T12:58:47.682Z,8064.00
2019-05-07T13:00:42.503Z,7284.00
2019-05-07T13:01:42.210Z,7164.00
2019-05-07T13:03:33.532Z,8356.00
2019-05-07T13:04:33.548Z,8092.00
2019-05-07T13:06:26.718Z,7600.00
2019-05-07T13:07:26.474Z,7532.00
2019-05-07T13:09:19.419Z,7280.00
2019-05-07T13:10:19.404Z,7228.00
2019-05-07T13:12:12.321Z,6680.00
2019-05-07T13:13:12.439Z,6372.00
2019-05-07T13:15:05.253Z,5700.00
2019-05-07T13:16:05.260Z,5556.00
2019-05-07T13:17:58.173Z,5516.00
2019-05-07T13:18:58.188Z,5500.00
2019-05-07T13:20:51.911Z,5380.00
2019-05-07T13:21:51.116Z,5476.00
2019-05-07T13:23:44.028Z,5676.00
2019-05-07T13:24:44.041Z,5564.00
2019-05-07T13:26:36.966Z,5500.00
2019-05-07T13:27:39.920Z,5372.00
2019-05-07T13:29:29.880Z,5440.00
2019-05-07T13:30:29.895Z,5472.00
2019-05-07T13:32:22.810Z,5768.00
2019-05-07T13:33:22.948Z,6256.00
2019-05-07T13:35:15.737Z,7196.00
2019-05-07T13:36:15.751Z,7004.00
2019-05-07T13:38:08.662Z,6192.00
2019-05-07T13:39:08.676Z,6024.00
2019-05-07T13:41:02.170Z,6604.00
2019-05-07T13:42:02.100Z,6988.00
2019-05-07T13:43:54.514Z,6604.00
2019-05-07T13:44:54.528Z,6968.00
2019-05-07T13:46:47.445Z,7840.00
2019-05-07T13:47:47.453Z,7404.00
2019-05-07T13:49:42.681Z,6836.00
2019-05-07T13:50:41.993Z,6468.00
2019-05-07T13:52:33.304Z,6296.00
2019-05-07T13:53:33.313Z,6060.00
2019-05-07T13:55:26.228Z,6472.00
2019-05-07T13:56:26.237Z,6520.00
2019-05-07T13:58:19.172Z,6156.00
2019-05-07T13:59:19.183Z,6224.00
2019-05-07T14:01:12.196Z,6856.00
2019-05-07T14:02:15.176Z,7096.00
2019-05-07T14:04:05.025Z,6988.00
2019-05-07T14:05:05.044Z,6836.00
2019-05-07T14:06:57.961Z,6044.00
2019-05-07T14:07:57.970Z,5536.00
2019-05-07T14:09:52.719Z,4660.00
2019-05-07T14:10:52.039Z,4536.00
2019-05-07T14:12:43.820Z,5044.00
2019-05-07T14:13:43.828Z,4840.00
2019-05-07T14:15:36.766Z,4100.00
2019-05-07T14:16:36.759Z,3616.00
2019-05-07T14:18:29.673Z,2936.00
2019-05-07T14:19:29.689Z,2796.00
2019-05-07T14:21:22.609Z,2680.00
2019-05-07T14:22:22.841Z,2672.00
2019-05-07T14:24:15.525Z,2608.00
2019-05-07T14:25:15.540Z,2700.00
2019-05-07T14:27:08.461Z,3056.00
2019-05-07T14:28:08.468Z,3196.00
2019-05-07T14:30:02.661Z,3680.00
2019-05-07T14:31:01.855Z,4048.00
2019-05-07T14:32:54.314Z,5004.00
2019-05-07T14:33:54.321Z,5440.00
2019-05-07T14:35:47.271Z,6084.00
2019-05-07T14:36:47.265Z,6536.00
2019-05-07T14:38:42.491Z,7408.00
2019-05-07T14:39:42.417Z,7904.00
2019-05-07T14:41:33.239Z,8764.00
2019-05-07T14:42:33.118Z,9072.00
2019-05-07T14:44:26.617Z,9496.00
2019-05-07T14:45:26.632Z,9796.00
2019-05-07T14:47:19.549Z,10264.00
2019-05-07T14:48:19.557Z,10316.00
2019-05-07T14:50:12.550Z,10360.00
2019-05-07T14:51:12.741Z,10304.00
2019-05-07T14:53:05.432Z,10100.00
2019-05-07T14:54:05.418Z,9760.00
2019-05-07T14:55:58.332Z,9860.00
2019-05-07T14:56:58.346Z,9948.00
2019-05-07T14:58:51.676Z,8896.00
2019-05-07T14:59:52.392Z,8244.00
2019-05-07T15:01:44.201Z,7048.00
2019-05-07T15:02:44.204Z,6472.00
2019-05-07T15:04:37.130Z,5468.00
2019-05-07T15:05:37.133Z,5172.00
2019-05-07T15:07:30.057Z,4984.00
2019-05-07T15:08:32.154Z,4916.00
2019-05-07T15:10:22.976Z,4804.00
2019-05-07T15:11:22.992Z,4804.00
2019-05-07T15:13:15.908Z,5084.00
2019-05-07T15:14:15.918Z,5200.00
2019-05-07T15:16:08.836Z,5008.00
2019-05-07T15:17:08.850Z,4692.00
2019-05-07T15:19:01.769Z,4036.00
2019-05-07T15:20:02.786Z,3688.00
2019-05-07T15:21:54.699Z,3016.00
2019-05-07T15:22:54.706Z,2688.00
2019-05-07T15:24:47.626Z,2208.00
2019-05-07T15:25:47.658Z,2044.00
2019-05-07T15:27:42.107Z,1900.00
2019-05-07T15:28:41.774Z,1856.00
2019-05-07T15:30:33.487Z,1792.00
2019-05-07T15:31:33.500Z,1764.00
2019-05-07T15:33:26.422Z,1692.00
2019-05-07T15:34:26.429Z,1652.00
2019-05-07T15:36:19.342Z,1600.00
2019-05-07T15:37:19.352Z,1588.00
2019-05-07T15:39:13.411Z,1608.00
2019-05-07T15:40:12.272Z,1628.00
2019-05-07T15:42:05.200Z,1632.00
2019-05-07T15:43:05.204Z,1628.00
2019-05-07T15:44:58.118Z,1672.00
2019-05-07T15:45:58.129Z,1704.00
2019-05-07T15:47:51.047Z,1712.00
2019-05-07T15:48:52.609Z,1720.00
2019-05-07T15:50:43.978Z,1816.00
2019-05-07T15:51:43.981Z,1920.00
2019-05-07T15:53:36.920Z,2160.00
2019-05-07T15:54:36.903Z,2268.00
2019-05-07T15:56:29.810Z,2492.00
2019-05-07T15:57:29.824Z,2580.00
2019-05-07T15:59:22.742Z,2840.00
2019-05-07T16:00:22.746Z,3100.00
2019-05-07T16:02:15.665Z,3636.00
2019-05-07T16:03:15.672Z,3868.00
2019-05-07T16:05:08.581Z,4604.00
2019-05-07T16:06:08.592Z,5180.00
2019-05-07T16:08:01.666Z,5940.00
2019-05-07T16:09:04.133Z,6256.00
2019-05-07T16:10:54.424Z,6816.00
2019-05-07T16:11:54.436Z,7112.00
2019-05-07T16:13:47.355Z,7200.00
2019-05-07T16:14:47.361Z,7124.00
2019-05-07T16:16:42.716Z,6904.00
2019-05-07T16:17:40.278Z,6716.00
2019-05-07T16:19:33.199Z,6444.00
2019-05-07T16:20:33.206Z,6324.00
2019-05-07T16:22:26.130Z,6000.00
2019-05-07T16:23:26.138Z,5804.00
2019-05-07T16:25:19.041Z,5576.00
2019-05-07T16:26:19.056Z,5484.00
2019-05-07T16:28:12.812Z,5328.00
2019-05-07T16:29:13.272Z,5272.00
2019-05-07T16:31:04.922Z,5076.00
2019-05-07T16:32:04.905Z,4912.00
2019-05-07T16:33:57.823Z,4588.00
2019-05-07T16:34:57.829Z,4448.00
2019-05-07T16:36:50.740Z,4284.00
2019-05-07T16:37:52.190Z,4268.00
2019-05-07T16:39:43.670Z,4288.00
2019-05-07T16:40:43.677Z,4340.00
2019-05-07T16:42:38.122Z,4412.00
2019-05-07T16:43:36.601Z,4496.00
2019-05-07T16:45:29.512Z,4612.00
2019-05-07T16:46:29.553Z,4628.00
2019-05-07T16:48:23.289Z,4532.00
2019-05-07T16:49:22.465Z,4500.00
2019-05-07T16:51:15.372Z,4480.00
2019-05-07T16:52:15.377Z,4496.00
2019-05-07T16:54:08.294Z,4576.00
2019-05-07T16:55:08.300Z,4632.00
2019-05-07T16:57:03.152Z,4628.00
2019-05-07T16:58:01.893Z,4564.00
2019-05-07T16:59:54.139Z,4416.00
2019-05-07T17:00:54.150Z,4352.00
2019-05-07T17:02:47.063Z,4320.00
2019-05-07T17:03:47.072Z,4296.00
2019-05-07T17:05:39.981Z,4088.00
2019-05-07T17:06:42.120Z,3940.00
2019-05-07T17:08:32.913Z,3820.00
2019-05-07T17:09:35.250Z,3876.00
2019-05-07T17:11:25.828Z,4104.00
2019-05-07T17:12:25.840Z,4216.00
2019-05-07T17:14:18.756Z,4316.00
2019-05-07T17:15:18.765Z,4288.00
2019-05-07T17:17:12.070Z,4112.00
2019-05-07T17:18:11.834Z,4028.00
2019-05-07T17:20:04.627Z,3980.00
2019-05-07T17:21:04.617Z,4020.00
2019-05-07T17:22:57.536Z,4060.00
2019-05-07T17:23:57.540Z,4040.00
2019-05-07T17:25:52.461Z,3976.00
2019-05-07T17:26:51.768Z,3940.00
2019-05-07T17:28:43.383Z,3872.00
2019-05-07T17:29:43.389Z,3828.00
2019-05-07T17:31:36.307Z,3788.00
2019-05-07T17:32:36.316Z,3740.00
2019-05-07T17:34:29.230Z,3616.00
2019-05-07T17:35:29.241Z,3580.00
2019-05-07T17:37:22.594Z,3492.00
2019-05-07T17:38:23.096Z,3380.00